createdAt,value
2022-11-02T00:01:34.111Z,11.90
2022-11-02T00:04:01.233Z,11.80
2022-11-02T00:06:28.004Z,11.70
2022-11-02T00:08:54.732Z,11.70
2022-11-02T00:11:21.561Z,11.70
2022-11-02T00:13:48.432Z,11.60
2022-11-02T00:16:18.299Z,11.60
2022-11-02T00:18:47.920Z,11.60
2022-11-02T00:21:18.397Z,11.70
2022-11-02T00:23:46.243Z,11.80
2022-11-02T00:26:13.183Z,11.80
2022-11-02T00:28:40.024Z,11.70
2022-11-02T00:31:06.858Z,11.70
2022-11-02T00:33:33.570Z,11.80
2022-11-02T00:36:00.528Z,11.80
2022-11-02T00:38:27.564Z,11.80
2022-11-02T00:40:54.316Z,11.80
2022-11-02T00:43:21.086Z,11.80
2022-11-02T00:45:50.521Z,11.90
2022-11-02T00:48:17.343Z,11.90
2022-11-02T00:50:44.135Z,11.90
2022-11-02T00:53:10.946Z,12.00
2022-11-02T00:55:38.514Z,11.90
2022-11-02T00:58:05.659Z,11.90
2022-11-02T01:00:32.569Z,12.00
2022-11-02T01:03:02.735Z,11.90
2022-11-02T01:05:30.002Z,11.90
2022-11-02T01:07:57.161Z,12.00
2022-11-02T01:10:26.199Z,12.00
2022-11-02T01:12:53.082Z,12.10
2022-11-02T01:15:19.875Z,12.10
2022-11-02T01:17:46.848Z,12.10
2022-11-02T01:20:14.435Z,12.20
2022-11-02T01:22:41.495Z,12.20
2022-11-02T01:25:09.249Z,12.20
2022-11-02T01:27:36.011Z,12.30
2022-11-02T01:30:06.063Z,12.20
2022-11-02T01:32:32.835Z,12.10
2022-11-02T01:34:59.984Z,12.20
2022-11-02T01:37:26.734Z,12.20
2022-11-02T01:39:53.436Z,12.20
2022-11-02T01:42:23.099Z,12.30
2022-11-02T01:44:50.142Z,12.20
2022-11-02T01:47:45.556Z,12.20
2022-11-02T01:50:25.717Z,12.20
2022-11-02T01:52:52.724Z,12.10
2022-11-02T01:55:23.632Z,12.00
2022-11-02T01:57:56.432Z,11.90
2022-11-02T02:00:23.405Z,11.90
2022-11-02T02:02:56.806Z,11.90
2022-11-02T02:05:24.878Z,11.90
2022-11-02T02:07:52.481Z,11.90
2022-11-02T02:10:19.794Z,11.90
2022-11-02T02:12:47.196Z,11.90
2022-11-02T02:15:14.422Z,12.00
2022-11-02T02:18:06.298Z,11.90
2022-11-02T02:20:39.150Z,11.80
2022-11-02T02:23:25.429Z,11.90
2022-11-02T02:26:35.956Z,11.90
2022-11-02T02:29:10.919Z,11.80
2022-11-02T02:31:46.127Z,11.80
2022-11-02T02:34:24.082Z,11.70
2022-11-02T02:36:58.449Z,11.80
2022-11-02T02:39:47.083Z,11.90
2022-11-02T02:42:30.374Z,12.00
2022-11-02T02:45:29.066Z,11.90
2022-11-02T02:48:17.444Z,11.80
2022-11-02T02:50:51.583Z,11.80
2022-11-02T02:53:24.504Z,11.70
2022-11-02T02:55:52.579Z,11.80
2022-11-02T02:58:24.319Z,11.80
2022-11-02T03:00:53.103Z,11.80
2022-11-02T03:03:23.665Z,11.70
2022-11-02T03:06:24.795Z,11.70
2022-11-02T03:09:21.004Z,11.70
2022-11-02T03:12:09.204Z,11.60
2022-11-02T03:14:54.856Z,11.60
2022-11-02T03:17:36.591Z,11.60
2022-11-02T03:20:03.351Z,11.60
2022-11-02T03:22:37.256Z,11.60
2022-11-02T03:25:18.168Z,11.60
2022-11-02T03:27:55.080Z,11.60
2022-11-02T03:30:24.679Z,11.50
2022-11-02T03:33:12.626Z,11.60
2022-11-02T03:36:06.553Z,11.60
2022-11-02T03:38:56.972Z,11.60
2022-11-02T03:41:25.900Z,11.60
2022-11-02T03:43:58.518Z,11.60
2022-11-02T03:46:26.203Z,11.60
2022-11-02T03:48:54.713Z,11.60
2022-11-02T03:51:23.868Z,11.60
2022-11-02T03:54:13.683Z,11.60
2022-11-02T03:56:48.185Z,11.60
2022-11-02T03:59:15.129Z,11.60
2022-11-02T04:01:48.478Z,11.50
2022-11-02T04:04:15.616Z,11.60
2022-11-02T04:06:43.454Z,11.70
2022-11-02T04:09:11.570Z,11.60
2022-11-02T04:11:57.327Z,11.60
2022-11-02T04:14:39.350Z,11.50
2022-11-02T04:17:26.309Z,11.40
2022-11-02T04:19:56.474Z,11.60
2022-11-02T04:22:42.059Z,11.60
2022-11-02T04:25:18.194Z,11.50
2022-11-02T04:27:47.496Z,11.60
2022-11-02T04:30:16.178Z,11.60
2022-11-02T04:33:07.976Z,11.50
2022-11-02T04:35:36.033Z,11.50
2022-11-02T04:38:22.438Z,11.70
2022-11-02T04:41:09.151Z,11.80
2022-11-02T04:43:35.874Z,11.90
2022-11-02T04:46:02.814Z,11.90
2022-11-02T04:48:29.559Z,12.00
2022-11-02T04:50:58.558Z,11.90
2022-11-02T04:53:25.300Z,11.90
2022-11-02T04:55:52.086Z,11.70
2022-11-02T04:58:18.868Z,11.70
2022-11-02T05:00:45.813Z,11.60
2022-11-02T05:03:12.818Z,11.70
2022-11-02T05:05:39.703Z,11.70
2022-11-02T05:08:06.906Z,11.80
2022-11-02T05:10:34.038Z,11.80
2022-11-02T05:13:01.148Z,11.70
2022-11-02T05:15:28.298Z,11.80
2022-11-02T05:18:03.038Z,11.90
2022-11-02T05:20:30.132Z,11.90
2022-11-02T05:22:56.993Z,11.90
2022-11-02T05:25:23.828Z,12.00
2022-11-02T05:27:50.613Z,12.00
2022-11-02T05:30:17.713Z,12.00
2022-11-02T05:32:44.691Z,12.10
2022-11-02T05:35:11.742Z,12.10
2022-11-02T05:37:38.578Z,12.10
2022-11-02T05:40:06.909Z,12.10
2022-11-02T05:42:33.968Z,12.20
2022-11-02T05:45:00.716Z,12.10
2022-11-02T05:47:27.572Z,12.10
2022-11-02T05:49:54.283Z,12.20
2022-11-02T05:52:21.059Z,12.30
2022-11-02T05:54:48.050Z,12.30
2022-11-02T05:57:17.051Z,12.30
2022-11-02T05:59:46.687Z,12.20
2022-11-02T06:02:16.418Z,12.20
2022-11-02T06:04:43.100Z,12.30
2022-11-02T06:07:10.091Z,12.30
2022-11-02T06:09:36.929Z,12.30
2022-11-02T06:12:06.140Z,12.30
2022-11-02T06:14:33.128Z,12.20
2022-11-02T06:16:59.876Z,12.10
2022-11-02T06:19:26.697Z,12.00
2022-11-02T06:21:53.503Z,12.00
2022-11-02T06:24:20.274Z,11.90
2022-11-02T06:26:47.135Z,12.00
2022-11-02T06:29:13.935Z,12.10
2022-11-02T06:31:40.825Z,12.10
2022-11-02T06:34:07.921Z,12.10
2022-11-02T06:36:34.647Z,12.10
2022-11-02T06:39:04.434Z,12.10
2022-11-02T06:41:31.252Z,12.20
2022-11-02T06:43:58.002Z,12.20
2022-11-02T06:46:24.811Z,12.30
2022-11-02T06:48:53.222Z,12.30
2022-11-02T06:51:20.282Z,12.30
2022-11-02T06:53:47.004Z,12.40
2022-11-02T06:56:14.020Z,12.40
2022-11-02T06:58:40.891Z,12.40
2022-11-02T07:01:09.339Z,12.40
2022-11-02T07:03:36.952Z,12.50
2022-11-02T07:06:06.349Z,12.50
2022-11-02T07:08:35.558Z,12.50
2022-11-02T07:11:02.392Z,12.60
2022-11-02T07:13:33.370Z,12.60
2022-11-02T07:16:00.136Z,12.60
2022-11-02T07:18:26.930Z,12.60
2022-11-02T07:20:53.700Z,12.60
2022-11-02T07:23:23.727Z,12.60
2022-11-02T07:25:51.253Z,12.60
2022-11-02T07:28:18.164Z,12.60
2022-11-02T07:30:45.100Z,12.60
2022-11-02T07:33:12.514Z,12.60
2022-11-02T07:35:45.561Z,12.60
2022-11-02T07:38:12.367Z,12.70
2022-11-02T07:40:40.179Z,12.70
2022-11-02T07:43:07.537Z,12.80
2022-11-02T07:45:37.035Z,12.80
2022-11-02T07:48:03.989Z,12.80
2022-11-02T07:50:30.765Z,12.80
2022-11-02T07:52:59.067Z,12.90
2022-11-02T07:55:28.807Z,12.90
2022-11-02T07:57:59.318Z,12.90
2022-11-02T08:00:28.212Z,13.00
2022-11-02T08:02:56.843Z,13.10
2022-11-02T08:05:24.383Z,13.10
2022-11-02T08:08:03.528Z,13.20
2022-11-02T08:10:35.443Z,13.10
2022-11-02T08:13:06.562Z,13.20
2022-11-02T08:15:33.864Z,13.20
2022-11-02T08:18:02.405Z,13.30
2022-11-02T08:20:29.918Z,13.20
2022-11-02T08:22:56.834Z,13.10
2022-11-02T08:25:24.409Z,13.10
2022-11-02T08:27:51.933Z,13.00
2022-11-02T08:30:18.927Z,13.00
2022-11-02T08:32:45.732Z,13.10
2022-11-02T08:35:12.509Z,13.10
2022-11-02T08:37:39.467Z,13.10
2022-11-02T08:40:06.966Z,13.20
2022-11-02T08:42:34.110Z,13.10
2022-11-02T08:45:01.018Z,13.10
2022-11-02T08:47:27.767Z,13.20
2022-11-02T08:49:54.508Z,13.10
2022-11-02T08:52:21.214Z,13.10
2022-11-02T08:54:48.283Z,13.20
2022-11-02T08:57:15.098Z,13.20
2022-11-02T08:59:42.247Z,13.30
2022-11-02T09:02:10.317Z,13.30
2022-11-02T09:04:37.228Z,13.30
2022-11-02T09:07:03.992Z,13.20
2022-11-02T09:09:31.372Z,13.00
2022-11-02T09:11:58.303Z,13.10
2022-11-02T09:14:25.262Z,13.20
2022-11-02T09:16:52.274Z,13.10
2022-11-02T09:19:19.039Z,13.20
2022-11-02T09:21:46.102Z,13.30
2022-11-02T09:24:15.997Z,13.30
2022-11-02T09:26:42.844Z,13.40
2022-11-02T09:29:09.830Z,13.40
2022-11-02T09:31:36.635Z,13.50
2022-11-02T09:34:03.402Z,13.60
2022-11-02T09:36:30.154Z,13.90
2022-11-02T09:38:57.152Z,13.80
2022-11-02T09:42:16.687Z,13.70
2022-11-02T09:44:54.564Z,13.60
2022-11-02T09:50:16.105Z,13.60
2022-11-02T09:52:45.566Z,13.50
2022-11-02T09:55:27.360Z,13.50
2022-11-02T09:58:16.970Z,13.30
2022-11-02T10:00:48.701Z,13.40
2022-11-02T10:03:34.025Z,13.40
2022-11-02T10:06:11.689Z,13.30
2022-11-02T10:09:16.113Z,13.30
2022-11-02T10:11:55.628Z,13.50
2022-11-02T10:14:26.362Z,13.50
2022-11-02T10:17:14.866Z,13.70
2022-11-02T10:19:48.850Z,13.50
2022-11-02T10:22:16.901Z,13.60
2022-11-02T10:24:46.548Z,13.40
2022-11-02T10:27:22.536Z,13.60
2022-11-02T10:30:13.260Z,13.70
2022-11-02T10:32:45.227Z,13.70
2022-11-02T10:38:55.115Z,13.80
2022-11-02T10:41:40.230Z,14.00
2022-11-02T10:44:41.535Z,14.00
2022-11-02T10:47:17.595Z,14.10
2022-11-02T10:50:12.285Z,13.90
2022-11-02T10:52:45.542Z,13.60
2022-11-02T10:55:27.841Z,13.60
2022-11-02T10:57:57.375Z,13.50
2022-11-02T11:00:30.856Z,13.40
2022-11-02T11:03:13.919Z,13.30
2022-11-02T11:06:04.850Z,13.20
2022-11-02T11:08:44.009Z,13.20
2022-11-02T11:11:19.441Z,13.20
2022-11-02T11:16:52.399Z,13.10
2022-11-02T11:19:38.607Z,13.10
2022-11-02T11:22:25.003Z,13.10
2022-11-02T11:24:52.379Z,13.10
2022-11-02T11:27:21.098Z,13.30
2022-11-02T11:29:52.222Z,13.50
2022-11-02T11:32:28.658Z,13.60
2022-11-02T11:35:06.452Z,13.80
2022-11-02T11:37:33.787Z,13.90
2022-11-02T11:40:04.842Z,14.00
2022-11-02T11:42:37.657Z,14.20
2022-11-02T11:45:26.247Z,14.30
2022-11-02T11:48:01.978Z,14.30
2022-11-02T11:50:29.139Z,14.10
2022-11-02T11:53:20.985Z,14.10
2022-11-02T11:55:50.457Z,13.90
2022-11-02T11:58:28.722Z,13.80
2022-11-02T12:01:14.850Z,13.80
2022-11-02T12:03:55.584Z,13.70
2022-11-02T12:06:37.012Z,13.90
2022-11-02T12:09:31.402Z,13.80
2022-11-02T12:12:07.871Z,14.10
2022-11-02T12:15:03.919Z,14.10
2022-11-02T12:17:54.663Z,14.00
2022-11-02T12:20:40.324Z,14.00
2022-11-02T12:23:32.243Z,14.20
2022-11-02T12:26:18.107Z,14.10
2022-11-02T12:28:55.787Z,14.20
2022-11-02T12:32:06.939Z,14.00
2022-11-02T12:35:23.222Z,13.80
2022-11-02T12:37:50.611Z,13.70
2022-11-02T12:40:49.875Z,13.60
2022-11-02T12:43:19.554Z,13.60
2022-11-02T12:45:59.526Z,13.70
2022-11-02T12:49:01.371Z,13.90
2022-11-02T12:51:51.064Z,13.70
2022-11-02T12:54:23.058Z,13.70
2022-11-02T12:56:54.385Z,13.50
2022-11-02T12:59:27.100Z,13.40
2022-11-02T13:05:02.482Z,13.30
2022-11-02T13:08:03.057Z,13.20
2022-11-02T13:10:41.489Z,13.20
2022-11-02T13:13:16.679Z,13.40
2022-11-02T13:15:46.019Z,13.50
2022-11-02T13:18:25.542Z,13.50
2022-11-02T13:20:55.759Z,13.60
2022-11-02T13:23:28.472Z,13.60
2022-11-02T13:26:01.769Z,13.60
2022-11-02T13:28:45.694Z,13.70
2022-11-02T13:31:18.386Z,13.70
2022-11-02T13:33:49.524Z,13.70
2022-11-02T13:36:16.636Z,13.80
2022-11-02T13:38:46.298Z,13.80
2022-11-02T13:42:09.369Z,13.80
2022-11-02T13:45:15.428Z,13.80
2022-11-02T13:48:04.007Z,13.90
2022-11-02T13:50:34.740Z,14.00
2022-11-02T13:53:08.890Z,13.90
2022-11-02T13:56:03.855Z,13.90
2022-11-02T13:58:37.683Z,13.90
2022-11-02T14:01:07.172Z,13.80
2022-11-02T14:04:01.646Z,13.80
2022-11-02T14:06:33.425Z,13.80
2022-11-02T14:09:05.196Z,13.80
2022-11-02T14:11:39.830Z,13.70
2022-11-02T14:14:28.144Z,13.60
2022-11-02T14:16:55.159Z,13.60
2022-11-02T14:19:23.443Z,13.60
2022-11-02T14:21:59.413Z,13.70
2022-11-02T14:24:36.158Z,13.70
2022-11-02T14:27:25.621Z,13.60
2022-11-02T14:29:54.523Z,13.60
2022-11-02T14:32:24.395Z,13.60
2022-11-02T14:34:58.415Z,13.60
2022-11-02T14:38:00.098Z,13.50
2022-11-02T14:40:49.160Z,13.50
2022-11-02T14:43:40.699Z,13.50
2022-11-02T14:46:21.802Z,13.40
2022-11-02T14:48:50.799Z,13.30
2022-11-02T14:51:39.260Z,13.40
2022-11-02T14:54:20.329Z,13.40
2022-11-02T14:56:55.905Z,13.30
2022-11-02T14:59:28.015Z,13.30
2022-11-02T15:02:05.252Z,13.20
2022-11-02T15:04:34.830Z,13.10
2022-11-02T15:07:04.407Z,13.10
2022-11-02T15:09:59.096Z,12.90
2022-11-02T15:12:40.971Z,12.90
2022-11-02T15:15:36.008Z,12.80
2022-11-02T15:18:22.671Z,12.80
2022-11-02T15:21:11.723Z,12.80
2022-11-02T15:26:26.013Z,12.60
2022-11-02T15:28:57.392Z,12.60
2022-11-02T15:31:26.560Z,12.60
2022-11-02T15:34:10.025Z,12.60
2022-11-02T15:36:39.181Z,12.40
2022-11-02T15:39:12.480Z,12.30
2022-11-02T15:41:49.116Z,12.10
2022-11-02T15:44:45.734Z,12.00
2022-11-02T15:47:44.841Z,11.90
2022-11-02T15:50:34.967Z,11.80
2022-11-02T15:53:23.496Z,11.70
2022-11-02T15:56:03.662Z,11.70
2022-11-02T15:59:02.739Z,11.90
2022-11-02T16:01:30.108Z,12.00
2022-11-02T16:04:05.068Z,11.80
2022-11-02T16:06:37.074Z,12.00
2022-11-02T16:09:29.817Z,11.70
2022-11-02T16:12:16.854Z,11.60
2022-11-02T16:14:53.379Z,11.60
2022-11-02T16:17:26.013Z,11.60
2022-11-02T16:20:09.476Z,11.40
2022-11-02T16:22:41.238Z,11.50
2022-11-02T16:25:12.356Z,11.40
2022-11-02T16:27:39.973Z,11.50
2022-11-02T16:30:07.661Z,11.50
2022-11-02T16:32:34.876Z,11.30
2022-11-02T16:35:02.319Z,11.30
2022-11-02T16:37:29.375Z,11.20
2022-11-02T16:39:57.027Z,11.10
2022-11-02T16:42:25.455Z,11.10
2022-11-02T16:45:01.409Z,10.90
2022-11-02T16:47:48.543Z,10.80
2022-11-02T16:50:26.561Z,10.70
2022-11-02T16:53:02.348Z,10.70
2022-11-02T16:55:36.638Z,10.70
2022-11-02T16:58:05.920Z,10.60
2022-11-02T17:00:33.247Z,10.70
2022-11-02T17:03:08.731Z,10.70
2022-11-02T17:05:35.999Z,10.80
2022-11-02T17:08:06.076Z,10.70
2022-11-02T17:10:34.153Z,10.70
2022-11-02T17:13:03.049Z,10.60
2022-11-02T17:15:34.707Z,10.50
2022-11-02T17:18:16.649Z,10.40
2022-11-02T17:20:43.621Z,10.40
2022-11-02T17:23:35.942Z,10.30
2022-11-02T17:26:25.406Z,10.20
2022-11-02T17:29:20.507Z,10.20
2022-11-02T17:31:56.347Z,10.10
2022-11-02T17:34:23.401Z,10.20
2022-11-02T17:36:50.743Z,10.10
2022-11-02T17:39:20.063Z,10.10
2022-11-02T17:42:11.534Z,10.10
2022-11-02T17:44:38.384Z,10.30
2022-11-02T17:47:23.552Z,10.40
2022-11-02T17:49:50.737Z,10.40
2022-11-02T17:52:17.588Z,10.50
2022-11-02T17:54:44.638Z,10.50
2022-11-02T17:57:13.799Z,10.50
2022-11-02T17:59:40.682Z,10.50
2022-11-02T18:02:15.961Z,10.50
2022-11-02T18:07:12.487Z,10.20
2022-11-02T18:09:39.321Z,10.10
2022-11-02T18:12:06.264Z,10.00
2022-11-02T18:14:33.224Z,9.90
2022-11-02T18:17:00.012Z,9.90
2022-11-02T18:19:28.420Z,9.90
2022-11-02T18:21:55.443Z,10.20
2022-11-02T18:24:22.194Z,10.50
2022-11-02T18:26:48.937Z,10.60
2022-11-02T18:29:15.800Z,10.60
2022-11-02T18:31:43.309Z,10.70
2022-11-02T18:34:10.604Z,10.70
2022-11-02T18:36:41.419Z,10.80
2022-11-02T18:39:08.482Z,11.00
2022-11-02T18:41:37.002Z,10.90
2022-11-02T18:44:13.550Z,11.00
2022-11-02T18:46:42.091Z,11.10
2022-11-02T18:49:08.917Z,11.40
2022-11-02T18:51:35.805Z,11.20
2022-11-02T18:54:06.439Z,11.20
2022-11-02T18:56:33.387Z,11.30
2022-11-02T18:59:00.504Z,11.30
2022-11-02T19:01:27.650Z,11.30
2022-11-02T19:03:56.931Z,11.20
2022-11-02T19:06:43.312Z,11.20
2022-11-02T19:09:18.474Z,11.20
2022-11-02T19:11:49.718Z,11.20
2022-11-02T19:14:17.845Z,11.20
2022-11-02T19:16:44.691Z,11.30
2022-11-02T19:19:11.847Z,11.10
2022-11-02T19:21:38.867Z,11.30
2022-11-02T19:24:06.831Z,11.30
2022-11-02T19:26:36.941Z,11.20
2022-11-02T19:29:06.370Z,11.20
2022-11-02T19:31:34.806Z,11.10
2022-11-02T19:34:01.814Z,11.00
2022-11-02T19:36:28.741Z,11.00
2022-11-02T19:38:55.867Z,10.90
2022-11-02T19:41:23.905Z,10.90
2022-11-02T19:43:51.036Z,10.90
2022-11-02T19:46:22.427Z,11.00
2022-11-02T19:48:49.791Z,10.90
2022-11-02T19:51:20.543Z,10.90
2022-11-02T19:54:01.355Z,10.80
2022-11-02T19:56:29.977Z,10.80
2022-11-02T19:58:57.537Z,10.80
2022-11-02T20:01:30.218Z,10.80
2022-11-02T20:03:57.975Z,10.80
2022-11-02T20:06:37.038Z,10.70
2022-11-02T20:09:06.315Z,10.70
2022-11-02T20:11:33.780Z,10.70
2022-11-02T20:14:02.505Z,10.80
2022-11-02T20:16:29.823Z,10.80
2022-11-02T20:18:57.084Z,10.70
2022-11-02T20:21:31.621Z,10.70
2022-11-02T20:24:01.048Z,10.50
2022-11-02T20:26:31.553Z,10.40
2022-11-02T20:29:00.135Z,10.60
2022-11-02T20:31:30.726Z,10.60
2022-11-02T20:34:01.175Z,10.50
2022-11-02T20:36:28.501Z,10.60
2022-11-02T20:38:56.386Z,10.50
2022-11-02T20:41:24.478Z,10.40
2022-11-02T20:43:53.098Z,10.40
2022-11-02T20:46:40.926Z,10.40
2022-11-02T20:49:21.184Z,10.50
2022-11-02T20:51:52.191Z,10.50
2022-11-02T20:54:20.000Z,10.40
2022-11-02T20:56:50.413Z,10.40
2022-11-02T20:59:17.781Z,10.50
2022-11-02T21:01:45.276Z,10.50
2022-11-02T21:04:18.623Z,10.40
2022-11-02T21:06:47.371Z,10.30
2022-11-02T21:09:14.456Z,10.40
2022-11-02T21:12:00.254Z,10.40
2022-11-02T21:14:27.417Z,10.40
2022-11-02T21:16:54.418Z,10.40
2022-11-02T21:19:21.495Z,10.40
2022-11-02T21:21:49.520Z,10.50
2022-11-02T21:24:16.729Z,10.40
2022-11-02T21:26:43.575Z,10.30
2022-11-02T21:29:10.397Z,10.30
2022-11-02T21:31:37.164Z,10.30
2022-11-02T21:34:04.037Z,10.40
2022-11-02T21:36:31.280Z,10.40
2022-11-02T21:38:58.878Z,10.40
2022-11-02T21:41:28.716Z,10.40
2022-11-02T21:43:56.113Z,10.50
2022-11-02T21:46:25.949Z,10.50
2022-11-02T21:48:54.515Z,10.50
2022-11-02T21:51:22.662Z,10.60
2022-11-02T21:53:50.688Z,10.50
2022-11-02T21:56:20.693Z,10.60
2022-11-02T21:58:50.633Z,10.60
2022-11-02T22:01:44.529Z,10.60
2022-11-02T22:04:14.019Z,10.70
2022-11-02T22:06:41.756Z,10.70
2022-11-02T22:09:11.915Z,10.80
2022-11-02T22:11:39.555Z,10.70
2022-11-02T22:14:06.647Z,10.70
2022-11-02T22:16:38.665Z,10.70
2022-11-02T22:19:10.916Z,10.70
2022-11-02T22:21:43.454Z,10.70
2022-11-02T22:24:11.502Z,10.70
2022-11-02T22:26:39.620Z,10.70
2022-11-02T22:29:07.365Z,10.70
2022-11-02T22:31:39.813Z,10.70
2022-11-02T22:34:10.557Z,10.80
2022-11-02T22:36:39.333Z,10.80
2022-11-02T22:39:08.601Z,10.70
2022-11-02T22:41:45.879Z,10.80
2022-11-02T22:44:15.024Z,10.80
2022-11-02T22:46:44.452Z,10.70
2022-11-02T22:49:13.385Z,10.70
2022-11-02T22:51:43.366Z,10.80
2022-11-02T22:54:15.028Z,10.80
2022-11-02T22:56:42.823Z,10.90
2022-11-02T22:59:09.778Z,10.80
2022-11-02T23:01:37.278Z,10.90
2022-11-02T23:04:05.386Z,10.90
2022-11-02T23:06:32.585Z,10.80
2022-11-02T23:08:59.941Z,10.80
2022-11-02T23:11:33.244Z,10.80
2022-11-02T23:14:07.418Z,10.80
2022-11-02T23:16:35.309Z,10.90
2022-11-02T23:19:27.692Z,10.80
2022-11-02T23:22:21.351Z,10.80
2022-11-02T23:25:12.046Z,10.80
2022-11-02T23:28:00.559Z,10.80
2022-11-02T23:30:54.199Z,10.80
2022-11-02T23:33:23.966Z,10.80
2022-11-02T23:36:09.510Z,10.80
2022-11-02T23:38:55.124Z,10.80
2022-11-02T23:41:22.053Z,10.70
2022-11-02T23:43:49.068Z,10.70
2022-11-02T23:46:17.632Z,10.80
2022-11-02T23:48:47.096Z,10.60
2022-11-02T23:51:37.710Z,10.70
2022-11-02T23:54:31.142Z,10.70
2022-11-02T23:56:58.428Z,10.60
2022-11-02T23:59:25.174Z,10.70
